sensor_id;sensor_type;location;lat;lon;timestamp;P1;durP1;ratioP1;P2;durP2;ratioP2
9322;SDS011;4700;48.822;9.270;2023-04-01T00:01:27;105.87;;;97.43;;
9322;SDS011;4700;48.822;9.270;2023-04-01T00:04:13;113.53;;;104.77;;
9322;SDS011;4700;48.822;9.270;2023-04-01T00:06:59;137.80;;;127.60;;
9322;SDS011;4700;48.822;9.270;2023-04-01T00:09:45;121.23;;;111.43;;
9322;SDS011;4700;48.822;9.270;2023-04-01T00:12:32;115.77;;;106.23;;
9322;SDS011;4700;48.822;9.270;2023-04-01T00:15:18;122.37;;;112.97;;
9322;SDS011;4700;48.822;9.270;2023-04-01T00:18:07;101.73;;;93.20;;
9322;SDS011;4700;48.822;9.270;2023-04-01T00:20:52;105.07;;;96.43;;
9322;SDS011;4700;48.822;9.270;2023-04-01T00:23:38;94.83;;;87.13;;
9322;SDS011;4700;48.822;9.270;2023-04-01T00:26:24;102.63;;;94.83;;
9322;SDS011;4700;48.822;9.270;2023-04-01T00:29:11;67.27;;;63.50;;
9322;SDS011;4700;48.822;9.270;2023-04-01T00:31:57;64.17;;;60.73;;
9322;SDS011;4700;48.822;9.270;2023-04-01T00:34:42;63.93;;;60.60;;
9322;SDS011;4700;48.822;9.270;2023-04-01T00:37:29;63.17;;;60.13;;
9322;SDS011;4700;48.822;9.270;2023-04-01T00:40:21;92.80;;;87.10;;
9322;SDS011;4700;48.822;9.270;2023-04-01T00:43:11;100.37;;;93.00;;
9322;SDS011;4700;48.822;9.270;2023-04-01T00:45:59;103.97;;;96.27;;
9322;SDS011;4700;48.822;9.270;2023-04-01T00:48:47;102.37;;;94.17;;
9322;SDS011;4700;48.822;9.270;2023-04-01T00:51:36;120.33;;;110.43;;
9322;SDS011;4700;48.822;9.270;2023-04-01T00:54:24;97.27;;;87.60;;
9322;SDS011;4700;48.822;9.270;2023-04-01T00:57:12;111.13;;;100.37;;
9322;SDS011;4700;48.822;9.270;2023-04-01T01:00:04;97.97;;;89.30;;
9322;SDS011;4700;48.822;9.270;2023-04-01T01:02:54;116.13;;;106.00;;
9322;SDS011;4700;48.822;9.270;2023-04-01T01:05:46;103.87;;;93.90;;
9322;SDS011;4700;48.822;9.270;2023-04-01T01:09:09;102.03;;;91.53;;
9322;SDS011;4700;48.822;9.270;2023-04-01T01:12:07;107.90;;;95.83;;
9322;SDS011;4700;48.822;9.270;2023-04-01T01:15:00;99.57;;;87.57;;
9322;SDS011;4700;48.822;9.270;2023-04-01T01:17:56;151.90;;;138.83;;
9322;SDS011;4700;48.822;9.270;2023-04-01T01:20:49;107.40;;;95.77;;
9322;SDS011;4700;48.822;9.270;2023-04-01T01:24:13;114.60;;;96.60;;
9322;SDS011;4700;48.822;9.270;2023-04-01T01:27:11;112.40;;;95.77;;
9322;SDS011;4700;48.822;9.270;2023-04-01T01:30:04;112.57;;;100.03;;
9322;SDS011;4700;48.822;9.270;2023-04-01T01:36:10;99.87;;;89.47;;
9322;SDS011;4700;48.822;9.270;2023-04-01T01:38:58;106.30;;;95.80;;
9322;SDS011;4700;48.822;9.270;2023-04-01T01:41:45;107.20;;;95.60;;
9322;SDS011;4700;48.822;9.270;2023-04-01T01:44:33;104.47;;;92.73;;
9322;SDS011;4700;48.822;9.270;2023-04-01T01:47:20;105.77;;;94.70;;
9322;SDS011;4700;48.822;9.270;2023-04-01T01:50:08;113.90;;;102.67;;
9322;SDS011;4700;48.822;9.270;2023-04-01T01:53:05;115.80;;;104.70;;
9322;SDS011;4700;48.822;9.270;2023-04-01T01:55:55;114.97;;;104.43;;
9322;SDS011;4700;48.822;9.270;2023-04-01T01:58:42;106.60;;;95.80;;
9322;SDS011;4700;48.822;9.270;2023-04-01T02:01:30;112.73;;;101.97;;
9322;SDS011;4700;48.822;9.270;2023-04-01T02:04:19;103.47;;;93.27;;
9322;SDS011;4700;48.822;9.270;2023-04-01T02:07:07;104.70;;;94.23;;
9322;SDS011;4700;48.822;9.270;2023-04-01T02:09:58;99.47;;;89.37;;
9322;SDS011;4700;48.822;9.270;2023-04-01T02:12:44;120.07;;;109.60;;
9322;SDS011;4700;48.822;9.270;2023-04-01T02:15:33;117.33;;;107.70;;
9322;SDS011;4700;48.822;9.270;2023-04-01T02:18:26;97.13;;;89.27;;
9322;SDS011;4700;48.822;9.270;2023-04-01T02:21:14;113.37;;;102.63;;
9322;SDS011;4700;48.822;9.270;2023-04-01T02:24:02;104.43;;;95.20;;
9322;SDS011;4700;48.822;9.270;2023-04-01T02:26:54;108.80;;;99.93;;
9322;SDS011;4700;48.822;9.270;2023-04-01T02:29:40;112.77;;;103.33;;
9322;SDS011;4700;48.822;9.270;2023-04-01T02:32:25;116.20;;;105.93;;
9322;SDS011;4700;48.822;9.270;2023-04-01T02:35:13;115.27;;;104.80;;
9322;SDS011;4700;48.822;9.270;2023-04-01T02:38:01;124.60;;;113.30;;
9322;SDS011;4700;48.822;9.270;2023-04-01T02:40:49;102.70;;;93.27;;
9322;SDS011;4700;48.822;9.270;2023-04-01T02:43:37;129.47;;;118.40;;
9322;SDS011;4700;48.822;9.270;2023-04-01T02:46:23;105.53;;;96.03;;
9322;SDS011;4700;48.822;9.270;2023-04-01T02:49:09;96.70;;;87.00;;
9322;SDS011;4700;48.822;9.270;2023-04-01T02:51:55;116.70;;;106.63;;
9322;SDS011;4700;48.822;9.270;2023-04-01T02:54:41;111.60;;;102.00;;
9322;SDS011;4700;48.822;9.270;2023-04-01T02:57:27;101.73;;;92.03;;
9322;SDS011;4700;48.822;9.270;2023-04-01T03:00:17;106.47;;;96.77;;
9322;SDS011;4700;48.822;9.270;2023-04-01T03:03:02;129.03;;;118.67;;
9322;SDS011;4700;48.822;9.270;2023-04-01T03:05:48;135.60;;;127.33;;
9322;SDS011;4700;48.822;9.270;2023-04-01T03:08:34;105.60;;;96.37;;
9322;SDS011;4700;48.822;9.270;2023-04-01T03:11:20;113.40;;;103.60;;
9322;SDS011;4700;48.822;9.270;2023-04-01T03:14:06;106.67;;;97.00;;
9322;SDS011;4700;48.822;9.270;2023-04-01T03:16:54;116.43;;;106.43;;
9322;SDS011;4700;48.822;9.270;2023-04-01T03:19:42;116.07;;;106.27;;
9322;SDS011;4700;48.822;9.270;2023-04-01T03:22:28;117.83;;;107.33;;
9322;SDS011;4700;48.822;9.270;2023-04-01T03:25:14;109.33;;;99.10;;
9322;SDS011;4700;48.822;9.270;2023-04-01T03:28:00;108.97;;;98.20;;
9322;SDS011;4700;48.822;9.270;2023-04-01T03:30:45;109.90;;;99.13;;
9322;SDS011;4700;48.822;9.270;2023-04-01T03:33:35;119.77;;;108.07;;
9322;SDS011;4700;48.822;9.270;2023-04-01T03:36:22;115.53;;;104.40;;
9322;SDS011;4700;48.822;9.270;2023-04-01T03:39:08;120.23;;;110.83;;
9322;SDS011;4700;48.822;9.270;2023-04-01T03:41:53;113.93;;;102.30;;
9322;SDS011;4700;48.822;9.270;2023-04-01T03:44:39;114.63;;;103.93;;
9322;SDS011;4700;48.822;9.270;2023-04-01T03:47:25;118.73;;;108.13;;
9322;SDS011;4700;48.822;9.270;2023-04-01T03:50:12;111.30;;;100.50;;
9322;SDS011;4700;48.822;9.270;2023-04-01T03:53:01;105.30;;;93.97;;
9322;SDS011;4700;48.822;9.270;2023-04-01T03:55:46;107.87;;;97.50;;
9322;SDS011;4700;48.822;9.270;2023-04-01T03:58:32;112.63;;;101.60;;
9322;SDS011;4700;48.822;9.270;2023-04-01T04:01:18;104.20;;;94.53;;
9322;SDS011;4700;48.822;9.270;2023-04-01T04:04:06;108.67;;;99.50;;
9322;SDS011;4700;48.822;9.270;2023-04-01T04:06:53;111.60;;;101.73;;
9322;SDS011;4700;48.822;9.270;2023-04-01T04:09:40;117.67;;;109.33;;
9322;SDS011;4700;48.822;9.270;2023-04-01T04:12:26;98.73;;;89.63;;
9322;SDS011;4700;48.822;9.270;2023-04-01T04:15:12;123.83;;;114.53;;
9322;SDS011;4700;48.822;9.270;2023-04-01T04:17:58;112.40;;;102.60;;
9322;SDS011;4700;48.822;9.270;2023-04-01T04:20:43;127.13;;;118.60;;
9322;SDS011;4700;48.822;9.270;2023-04-01T04:23:32;109.47;;;99.07;;
9322;SDS011;4700;48.822;9.270;2023-04-01T04:26:18;107.13;;;97.03;;
9322;SDS011;4700;48.822;9.270;2023-04-01T04:29:06;119.50;;;110.70;;
9322;SDS011;4700;48.822;9.270;2023-04-01T04:31:51;119.00;;;109.23;;
9322;SDS011;4700;48.822;9.270;2023-04-01T04:34:37;96.63;;;88.93;;
9322;SDS011;4700;48.822;9.270;2023-04-01T04:37:23;123.37;;;113.13;;
9322;SDS011;4700;48.822;9.270;2023-04-01T04:40:11;105.90;;;97.03;;
9322;SDS011;4700;48.822;9.270;2023-04-01T04:42:57;109.70;;;100.83;;
9322;SDS011;4700;48.822;9.270;2023-04-01T04:45:43;110.90;;;101.90;;
9322;SDS011;4700;48.822;9.270;2023-04-01T04:48:29;119.73;;;110.67;;
9322;SDS011;4700;48.822;9.270;2023-04-01T04:51:15;105.63;;;96.40;;
9322;SDS011;4700;48.822;9.270;2023-04-01T04:54:01;110.37;;;99.97;;
9322;SDS011;4700;48.822;9.270;2023-04-01T04:56:49;124.23;;;113.57;;
9322;SDS011;4700;48.822;9.270;2023-04-01T04:59:36;125.47;;;116.93;;
9322;SDS011;4700;48.822;9.270;2023-04-01T05:02:22;119.03;;;108.23;;
9322;SDS011;4700;48.822;9.270;2023-04-01T05:05:08;118.57;;;107.67;;
9322;SDS011;4700;48.822;9.270;2023-04-01T05:07:54;125.93;;;116.23;;
9322;SDS011;4700;48.822;9.270;2023-04-01T05:10:40;108.13;;;97.87;;
9322;SDS011;4700;48.822;9.270;2023-04-01T05:13:27;116.47;;;105.13;;
9322;SDS011;4700;48.822;9.270;2023-04-01T05:16:14;107.83;;;96.03;;
9322;SDS011;4700;48.822;9.270;2023-04-01T05:19:02;114.17;;;102.47;;
9322;SDS011;4700;48.822;9.270;2023-04-01T05:21:47;118.47;;;105.93;;
9322;SDS011;4700;48.822;9.270;2023-04-01T05:24:33;126.30;;;114.37;;
9322;SDS011;4700;48.822;9.270;2023-04-01T05:27:20;123.27;;;110.93;;
9322;SDS011;4700;48.822;9.270;2023-04-01T05:30:07;120.50;;;109.33;;
9322;SDS011;4700;48.822;9.270;2023-04-01T05:32:53;132.13;;;122.10;;
9322;SDS011;4700;48.822;9.270;2023-04-01T05:35:39;114.57;;;102.50;;
9322;SDS011;4700;48.822;9.270;2023-04-01T05:38:25;132.27;;;122.27;;
9322;SDS011;4700;48.822;9.270;2023-04-01T05:41:10;113.83;;;103.13;;
9322;SDS011;4700;48.822;9.270;2023-04-01T05:43:56;109.47;;;99.57;;
9322;SDS011;4700;48.822;9.270;2023-04-01T05:46:43;116.70;;;105.67;;
9322;SDS011;4700;48.822;9.270;2023-04-01T05:49:29;100.93;;;91.17;;
9322;SDS011;4700;48.822;9.270;2023-04-01T05:52:14;106.13;;;95.17;;
9322;SDS011;4700;48.822;9.270;2023-04-01T05:55:00;102.60;;;91.87;;
9322;SDS011;4700;48.822;9.270;2023-04-01T05:57:46;114.13;;;103.00;;
9322;SDS011;4700;48.822;9.270;2023-04-01T06:00:33;110.67;;;99.23;;
9322;SDS011;4700;48.822;9.270;2023-04-01T06:03:23;123.00;;;110.17;;
9322;SDS011;4700;48.822;9.270;2023-04-01T06:06:11;103.87;;;92.20;;
9322;SDS011;4700;48.822;9.270;2023-04-01T06:09:05;100.87;;;88.10;;
9322;SDS011;4700;48.822;9.270;2023-04-01T06:12:02;113.30;;;99.53;;
9322;SDS011;4700;48.822;9.270;2023-04-01T06:15:04;116.00;;;94.30;;
9322;SDS011;4700;48.822;9.270;2023-04-01T06:18:11;103.40;;;81.10;;
9322;SDS011;4700;48.822;9.270;2023-04-01T06:21:08;112.93;;;90.97;;
9322;SDS011;4700;48.822;9.270;2023-04-01T06:24:12;109.00;;;89.67;;
9322;SDS011;4700;48.822;9.270;2023-04-01T06:27:09;97.73;;;84.83;;
9322;SDS011;4700;48.822;9.270;2023-04-01T06:30:08;103.00;;;92.20;;
9322;SDS011;4700;48.822;9.270;2023-04-01T06:33:20;96.73;;;86.87;;
9322;SDS011;4700;48.822;9.270;2023-04-01T06:36:45;97.50;;;85.27;;
9322;SDS011;4700;48.822;9.270;2023-04-01T06:39:43;99.87;;;90.03;;
9322;SDS011;4700;48.822;9.270;2023-04-01T06:42:53;82.83;;;74.43;;
9322;SDS011;4700;48.822;9.270;2023-04-01T06:45:47;94.83;;;85.53;;
9322;SDS011;4700;48.822;9.270;2023-04-01T06:48:42;80.30;;;72.57;;
9322;SDS011;4700;48.822;9.270;2023-04-01T06:51:51;99.37;;;90.03;;
9322;SDS011;4700;48.822;9.270;2023-04-01T06:54:42;86.50;;;78.43;;
9322;SDS011;4700;48.822;9.270;2023-04-01T06:57:34;98.90;;;89.90;;
9322;SDS011;4700;48.822;9.270;2023-04-01T07:00:27;102.23;;;92.80;;
9322;SDS011;4700;48.822;9.270;2023-04-01T07:03:17;95.37;;;86.33;;
9322;SDS011;4700;48.822;9.270;2023-04-01T07:06:10;92.13;;;83.60;;
9322;SDS011;4700;48.822;9.270;2023-04-01T07:09:04;91.97;;;82.73;;
9322;SDS011;4700;48.822;9.270;2023-04-01T07:11:53;104.17;;;93.53;;
9322;SDS011;4700;48.822;9.270;2023-04-01T07:14:44;103.93;;;93.97;;
9322;SDS011;4700;48.822;9.270;2023-04-01T07:17:34;92.70;;;83.87;;
9322;SDS011;4700;48.822;9.270;2023-04-01T07:20:27;87.87;;;79.70;;
9322;SDS011;4700;48.822;9.270;2023-04-01T07:23:16;86.37;;;78.67;;
9322;SDS011;4700;48.822;9.270;2023-04-01T07:26:11;101.97;;;93.03;;
9322;SDS011;4700;48.822;9.270;2023-04-01T07:29:01;96.03;;;87.50;;
9322;SDS011;4700;48.822;9.270;2023-04-01T07:35:09;116.00;;;105.93;;
9322;SDS011;4700;48.822;9.270;2023-04-01T07:38:07;113.87;;;104.60;;
9322;SDS011;4700;48.822;9.270;2023-04-01T07:41:04;114.63;;;105.23;;
9322;SDS011;4700;48.822;9.270;2023-04-01T07:44:00;94.63;;;85.93;;
9322;SDS011;4700;48.822;9.270;2023-04-01T07:50:04;114.13;;;104.33;;
9322;SDS011;4700;48.822;9.270;2023-04-01T07:53:01;108.97;;;98.47;;
9322;SDS011;4700;48.822;9.270;2023-04-01T07:55:54;126.07;;;115.77;;
9322;SDS011;4700;48.822;9.270;2023-04-01T07:58:51;102.83;;;95.00;;
9322;SDS011;4700;48.822;9.270;2023-04-01T08:01:44;131.07;;;120.40;;
9322;SDS011;4700;48.822;9.270;2023-04-01T08:04:38;103.43;;;94.70;;
9322;SDS011;4700;48.822;9.270;2023-04-01T08:07:35;104.20;;;95.40;;
9322;SDS011;4700;48.822;9.270;2023-04-01T08:10:27;99.77;;;91.40;;
9322;SDS011;4700;48.822;9.270;2023-04-01T08:13:24;88.37;;;81.73;;
9322;SDS011;4700;48.822;9.270;2023-04-01T08:16:19;89.17;;;81.47;;
9322;SDS011;4700;48.822;9.270;2023-04-01T08:19:15;97.40;;;88.60;;
9322;SDS011;4700;48.822;9.270;2023-04-01T08:22:11;94.37;;;86.43;;
9322;SDS011;4700;48.822;9.270;2023-04-01T08:25:04;103.60;;;94.63;;
9322;SDS011;4700;48.822;9.270;2023-04-01T08:27:53;89.77;;;82.13;;
9322;SDS011;4700;48.822;9.270;2023-04-01T08:30:45;87.07;;;79.63;;
9322;SDS011;4700;48.822;9.270;2023-04-01T08:33:37;90.43;;;82.43;;
9322;SDS011;4700;48.822;9.270;2023-04-01T08:36:28;97.50;;;89.00;;
9322;SDS011;4700;48.822;9.270;2023-04-01T08:39:17;76.90;;;71.63;;
9322;SDS011;4700;48.822;9.270;2023-04-01T08:48:50;74.87;;;69.07;;
9322;SDS011;4700;48.822;9.270;2023-04-01T08:51:57;89.73;;;81.83;;
9322;SDS011;4700;48.822;9.270;2023-04-01T08:55:21;103.20;;;94.37;;
9322;SDS011;4700;48.822;9.270;2023-04-01T09:02:00;108.63;;;98.43;;
9322;SDS011;4700;48.822;9.270;2023-04-01T09:08:25;121.90;;;111.60;;
9322;SDS011;4700;48.822;9.270;2023-04-01T09:11:24;113.23;;;103.73;;
9322;SDS011;4700;48.822;9.270;2023-04-01T09:14:21;101.87;;;93.13;;
9322;SDS011;4700;48.822;9.270;2023-04-01T09:17:37;99.27;;;90.33;;
9322;SDS011;4700;48.822;9.270;2023-04-01T09:20:44;98.93;;;90.50;;
9322;SDS011;4700;48.822;9.270;2023-04-01T09:23:47;77.20;;;70.07;;
9322;SDS011;4700;48.822;9.270;2023-04-01T09:26:58;91.43;;;82.50;;
9322;SDS011;4700;48.822;9.270;2023-04-01T09:33:21;85.20;;;76.77;;
9322;SDS011;4700;48.822;9.270;2023-04-01T09:36:42;106.43;;;96.40;;
9322;SDS011;4700;48.822;9.270;2023-04-01T09:39:40;85.37;;;77.30;;
9322;SDS011;4700;48.822;9.270;2023-04-01T09:42:42;94.30;;;85.50;;
9322;SDS011;4700;48.822;9.270;2023-04-01T09:45:44;101.93;;;92.20;;
9322;SDS011;4700;48.822;9.270;2023-04-01T09:48:53;92.57;;;83.57;;
9322;SDS011;4700;48.822;9.270;2023-04-01T09:52:06;97.63;;;88.00;;
9322;SDS011;4700;48.822;9.270;2023-04-01T09:55:24;93.73;;;84.57;;
9322;SDS011;4700;48.822;9.270;2023-04-01T09:58:37;97.13;;;88.47;;
9322;SDS011;4700;48.822;9.270;2023-04-01T10:02:14;99.17;;;90.13;;
9322;SDS011;4700;48.822;9.270;2023-04-01T10:21:57;100.23;;;91.53;;
9322;SDS011;4700;48.822;9.270;2023-04-01T10:25:04;94.13;;;85.93;;
9322;SDS011;4700;48.822;9.270;2023-04-01T10:38:24;89.00;;;80.57;;
9322;SDS011;4700;48.822;9.270;2023-04-01T10:41:42;96.00;;;87.07;;
9322;SDS011;4700;48.822;9.270;2023-04-01T10:45:06;103.03;;;93.87;;
9322;SDS011;4700;48.822;9.270;2023-04-01T10:48:21;104.73;;;95.10;;
9322;SDS011;4700;48.822;9.270;2023-04-01T10:51:25;83.13;;;75.77;;
9322;SDS011;4700;48.822;9.270;2023-04-01T10:54:40;94.20;;;85.67;;
9322;SDS011;4700;48.822;9.270;2023-04-01T11:01:07;85.23;;;77.33;;
9322;SDS011;4700;48.822;9.270;2023-04-01T11:04:19;95.77;;;87.53;;
9322;SDS011;4700;48.822;9.270;2023-04-01T11:11:33;107.67;;;98.33;;
9322;SDS011;4700;48.822;9.270;2023-04-01T11:21:44;81.07;;;73.07;;
9322;SDS011;4700;48.822;9.270;2023-04-01T11:24:49;105.90;;;95.50;;
9322;SDS011;4700;48.822;9.270;2023-04-01T11:28:18;97.83;;;87.63;;
9322;SDS011;4700;48.822;9.270;2023-04-01T11:34:43;89.30;;;80.07;;
9322;SDS011;4700;48.822;9.270;2023-04-01T11:37:41;87.07;;;78.27;;
9322;SDS011;4700;48.822;9.270;2023-04-01T11:40:37;86.30;;;77.57;;
9322;SDS011;4700;48.822;9.270;2023-04-01T11:43:32;89.80;;;80.83;;
9322;SDS011;4700;48.822;9.270;2023-04-01T11:46:24;88.20;;;79.50;;
9322;SDS011;4700;48.822;9.270;2023-04-01T11:49:20;93.43;;;84.60;;
9322;SDS011;4700;48.822;9.270;2023-04-01T11:55:40;98.50;;;88.27;;
9322;SDS011;4700;48.822;9.270;2023-04-01T11:58:48;87.13;;;78.40;;
9322;SDS011;4700;48.822;9.270;2023-04-01T12:01:59;84.17;;;76.00;;
9322;SDS011;4700;48.822;9.270;2023-04-01T12:08:10;88.10;;;79.70;;
9322;SDS011;4700;48.822;9.270;2023-04-01T12:11:12;89.50;;;81.20;;
9322;SDS011;4700;48.822;9.270;2023-04-01T12:14:08;76.80;;;69.77;;
9322;SDS011;4700;48.822;9.270;2023-04-01T12:17:00;67.90;;;61.77;;
9322;SDS011;4700;48.822;9.270;2023-04-01T12:19:56;73.30;;;66.77;;
9322;SDS011;4700;48.822;9.270;2023-04-01T12:22:49;72.27;;;65.80;;
9322;SDS011;4700;48.822;9.270;2023-04-01T12:25:51;80.80;;;73.60;;
9322;SDS011;4700;48.822;9.270;2023-04-01T12:28:59;82.40;;;74.90;;
9322;SDS011;4700;48.822;9.270;2023-04-01T12:31:56;82.30;;;75.00;;
9322;SDS011;4700;48.822;9.270;2023-04-01T12:34:50;81.07;;;73.87;;
9322;SDS011;4700;48.822;9.270;2023-04-01T12:37:52;80.77;;;73.37;;
9322;SDS011;4700;48.822;9.270;2023-04-01T12:40:56;91.40;;;82.83;;
9322;SDS011;4700;48.822;9.270;2023-04-01T12:44:09;85.47;;;77.77;;
9322;SDS011;4700;48.822;9.270;2023-04-01T12:50:33;80.67;;;73.07;;
9322;SDS011;4700;48.822;9.270;2023-04-01T12:53:35;78.17;;;70.80;;
9322;SDS011;4700;48.822;9.270;2023-04-01T12:56:32;93.13;;;84.47;;
9322;SDS011;4700;48.822;9.270;2023-04-01T12:59:37;82.20;;;74.80;;
9322;SDS011;4700;48.822;9.270;2023-04-01T13:02:40;80.23;;;73.13;;
9322;SDS011;4700;48.822;9.270;2023-04-01T13:06:04;78.27;;;71.07;;
9322;SDS011;4700;48.822;9.270;2023-04-01T13:09:19;82.97;;;75.07;;
9322;SDS011;4700;48.822;9.270;2023-04-01T13:12:24;91.53;;;82.87;;
9322;SDS011;4700;48.822;9.270;2023-04-01T13:15:26;85.63;;;77.43;;
9322;SDS011;4700;48.822;9.270;2023-04-01T13:18:21;86.93;;;78.67;;
9322;SDS011;4700;48.822;9.270;2023-04-01T13:21:15;95.80;;;86.50;;
9322;SDS011;4700;48.822;9.270;2023-04-01T13:24:11;88.67;;;80.47;;
9322;SDS011;4700;48.822;9.270;2023-04-01T13:27:09;84.50;;;76.90;;
9322;SDS011;4700;48.822;9.270;2023-04-01T13:30:02;84.30;;;76.80;;
9322;SDS011;4700;48.822;9.270;2023-04-01T13:33:04;82.83;;;74.93;;
9322;SDS011;4700;48.822;9.270;2023-04-01T13:36:04;93.73;;;84.83;;
9322;SDS011;4700;48.822;9.270;2023-04-01T13:39:01;71.07;;;64.80;;
9322;SDS011;4700;48.822;9.270;2023-04-01T13:42:10;93.40;;;85.00;;
9322;SDS011;4700;48.822;9.270;2023-04-01T13:45:02;77.53;;;70.97;;
9322;SDS011;4700;48.822;9.270;2023-04-01T13:51:21;94.30;;;85.30;;
9322;SDS011;4700;48.822;9.270;2023-04-01T13:57:47;94.70;;;85.37;;
9322;SDS011;4700;48.822;9.270;2023-04-01T14:00:51;87.37;;;78.97;;
9322;SDS011;4700;48.822;9.270;2023-04-01T14:07:00;91.13;;;82.80;;
9322;SDS011;4700;48.822;9.270;2023-04-01T14:10:04;93.30;;;85.30;;
9322;SDS011;4700;48.822;9.270;2023-04-01T14:13:00;76.27;;;69.60;;
9322;SDS011;4700;48.822;9.270;2023-04-01T14:16:00;70.33;;;65.20;;
9322;SDS011;4700;48.822;9.270;2023-04-01T14:19:07;89.93;;;82.53;;
9322;SDS011;4700;48.822;9.270;2023-04-01T14:22:11;83.00;;;75.70;;
9322;SDS011;4700;48.822;9.270;2023-04-01T14:25:18;79.90;;;74.13;;
9322;SDS011;4700;48.822;9.270;2023-04-01T14:28:18;84.70;;;77.70;;
9322;SDS011;4700;48.822;9.270;2023-04-01T14:31:26;69.60;;;64.67;;
9322;SDS011;4700;48.822;9.270;2023-04-01T14:34:25;67.90;;;61.90;;
9322;SDS011;4700;48.822;9.270;2023-04-01T14:37:26;72.50;;;66.53;;
9322;SDS011;4700;48.822;9.270;2023-04-01T14:40:28;92.40;;;84.80;;
9322;SDS011;4700;48.822;9.270;2023-04-01T14:43:48;67.53;;;62.47;;
9322;SDS011;4700;48.822;9.270;2023-04-01T14:47:08;76.03;;;69.27;;
9322;SDS011;4700;48.822;9.270;2023-04-01T14:50:20;70.33;;;64.40;;
9322;SDS011;4700;48.822;9.270;2023-04-01T14:53:11;65.40;;;60.53;;
9322;SDS011;4700;48.822;9.270;2023-04-01T14:56:08;68.23;;;62.93;;
9322;SDS011;4700;48.822;9.270;2023-04-01T14:58:58;71.97;;;65.80;;
9322;SDS011;4700;48.822;9.270;2023-04-01T15:01:46;78.57;;;71.57;;
9322;SDS011;4700;48.822;9.270;2023-04-01T15:04:49;87.47;;;79.77;;
9322;SDS011;4700;48.822;9.270;2023-04-01T15:07:45;78.97;;;72.23;;
9322;SDS011;4700;48.822;9.270;2023-04-01T15:14:23;80.93;;;73.13;;
9322;SDS011;4700;48.822;9.270;2023-04-01T15:17:40;81.40;;;73.80;;
9322;SDS011;4700;48.822;9.270;2023-04-01T15:20:36;97.27;;;88.43;;
9322;SDS011;4700;48.822;9.270;2023-04-01T15:23:37;99.40;;;90.20;;
9322;SDS011;4700;48.822;9.270;2023-04-01T15:26:49;97.80;;;88.77;;
9322;SDS011;4700;48.822;9.270;2023-04-01T15:33:06;81.03;;;73.53;;
9322;SDS011;4700;48.822;9.270;2023-04-01T15:36:15;76.03;;;69.07;;
9322;SDS011;4700;48.822;9.270;2023-04-01T15:39:16;84.53;;;76.63;;
9322;SDS011;4700;48.822;9.270;2023-04-01T15:45:33;82.80;;;75.40;;
9322;SDS011;4700;48.822;9.270;2023-04-01T15:48:31;76.47;;;69.47;;
9322;SDS011;4700;48.822;9.270;2023-04-01T15:51:37;78.67;;;71.47;;
9322;SDS011;4700;48.822;9.270;2023-04-01T15:58:05;94.80;;;85.10;;
9322;SDS011;4700;48.822;9.270;2023-04-01T16:01:13;90.17;;;82.30;;
9322;SDS011;4700;48.822;9.270;2023-04-01T16:04:12;71.93;;;65.17;;
9322;SDS011;4700;48.822;9.270;2023-04-01T16:07:11;80.43;;;72.87;;
9322;SDS011;4700;48.822;9.270;2023-04-01T16:10:16;81.07;;;73.57;;
9322;SDS011;4700;48.822;9.270;2023-04-01T16:13:16;77.10;;;70.53;;
9322;SDS011;4700;48.822;9.270;2023-04-01T16:16:21;69.37;;;63.30;;
9322;SDS011;4700;48.822;9.270;2023-04-01T16:19:21;78.60;;;71.67;;
9322;SDS011;4700;48.822;9.270;2023-04-01T16:22:14;77.53;;;70.37;;
9322;SDS011;4700;48.822;9.270;2023-04-01T16:25:14;81.43;;;74.77;;
9322;SDS011;4700;48.822;9.270;2023-04-01T16:31:12;85.90;;;78.20;;
9322;SDS011;4700;48.822;9.270;2023-04-01T16:34:03;90.93;;;82.70;;
9322;SDS011;4700;48.822;9.270;2023-04-01T16:36:55;84.93;;;76.80;;
9322;SDS011;4700;48.822;9.270;2023-04-01T16:39:54;79.93;;;72.73;;
9322;SDS011;4700;48.822;9.270;2023-04-01T16:42:57;71.03;;;64.40;;
9322;SDS011;4700;48.822;9.270;2023-04-01T16:45:59;80.97;;;73.83;;
9322;SDS011;4700;48.822;9.270;2023-04-01T16:49:24;69.33;;;63.30;;
9322;SDS011;4700;48.822;9.270;2023-04-01T16:52:29;92.37;;;83.37;;
9322;SDS011;4700;48.822;9.270;2023-04-01T16:55:22;83.43;;;75.57;;
9322;SDS011;4700;48.822;9.270;2023-04-01T16:58:21;73.43;;;66.77;;
9322;SDS011;4700;48.822;9.270;2023-04-01T17:01:12;58.80;;;53.70;;
9322;SDS011;4700;48.822;9.270;2023-04-01T17:04:06;58.33;;;53.20;;
9322;SDS011;4700;48.822;9.270;2023-04-01T17:07:04;67.63;;;61.53;;
9322;SDS011;4700;48.822;9.270;2023-04-01T17:10:02;63.27;;;57.67;;
9322;SDS011;4700;48.822;9.270;2023-04-01T17:13:15;68.23;;;61.93;;
9322;SDS011;4700;48.822;9.270;2023-04-01T17:16:22;68.73;;;62.50;;
9322;SDS011;4700;48.822;9.270;2023-04-01T17:22:49;80.90;;;73.30;;
9322;SDS011;4700;48.822;9.270;2023-04-01T17:25:50;76.73;;;69.63;;
9322;SDS011;4700;48.822;9.270;2023-04-01T17:29:01;80.90;;;72.77;;
9322;SDS011;4700;48.822;9.270;2023-04-01T17:32:00;86.10;;;77.33;;
9322;SDS011;4700;48.822;9.270;2023-04-01T17:34:53;92.37;;;82.07;;
9322;SDS011;4700;48.822;9.270;2023-04-01T17:37:52;93.93;;;84.20;;
9322;SDS011;4700;48.822;9.270;2023-04-01T17:40:51;94.50;;;84.93;;
9322;SDS011;4700;48.822;9.270;2023-04-01T17:43:47;92.67;;;83.87;;
9322;SDS011;4700;48.822;9.270;2023-04-01T17:46:50;73.57;;;66.53;;
9322;SDS011;4700;48.822;9.270;2023-04-01T17:49:49;77.13;;;69.63;;
9322;SDS011;4700;48.822;9.270;2023-04-01T17:52:47;76.80;;;69.00;;
9322;SDS011;4700;48.822;9.270;2023-04-01T17:58:56;80.60;;;72.50;;
9322;SDS011;4700;48.822;9.270;2023-04-01T18:01:49;85.60;;;76.67;;
9322;SDS011;4700;48.822;9.270;2023-04-01T18:04:49;91.80;;;81.30;;
9322;SDS011;4700;48.822;9.270;2023-04-01T18:11:05;112.90;;;87.83;;
9322;SDS011;4700;48.822;9.270;2023-04-01T18:14:13;95.50;;;80.00;;
9322;SDS011;4700;48.822;9.270;2023-04-01T18:17:17;106.33;;;86.57;;
9322;SDS011;4700;48.822;9.270;2023-04-01T18:20:14;94.30;;;80.33;;
9322;SDS011;4700;48.822;9.270;2023-04-01T18:23:14;102.07;;;83.40;;
9322;SDS011;4700;48.822;9.270;2023-04-01T18:26:13;103.83;;;80.80;;
9322;SDS011;4700;48.822;9.270;2023-04-01T18:29:11;100.10;;;79.17;;
9322;SDS011;4700;48.822;9.270;2023-04-01T18:32:12;100.13;;;81.00;;
9322;SDS011;4700;48.822;9.270;2023-04-01T18:35:22;104.90;;;83.50;;
9322;SDS011;4700;48.822;9.270;2023-04-01T18:38:16;106.70;;;83.93;;
9322;SDS011;4700;48.822;9.270;2023-04-01T18:41:12;89.57;;;77.93;;
9322;SDS011;4700;48.822;9.270;2023-04-01T18:44:03;86.17;;;72.63;;
9322;SDS011;4700;48.822;9.270;2023-04-01T18:47:05;93.43;;;79.27;;
9322;SDS011;4700;48.822;9.270;2023-04-01T18:50:02;81.17;;;71.67;;
9322;SDS011;4700;48.822;9.270;2023-04-01T18:52:59;93.67;;;77.57;;
9322;SDS011;4700;48.822;9.270;2023-04-01T18:56:00;98.00;;;82.43;;
9322;SDS011;4700;48.822;9.270;2023-04-01T18:58:48;85.67;;;75.10;;
9322;SDS011;4700;48.822;9.270;2023-04-01T19:01:41;86.60;;;76.60;;
9322;SDS011;4700;48.822;9.270;2023-04-01T19:04:34;87.97;;;78.00;;
9322;SDS011;4700;48.822;9.270;2023-04-01T19:10:36;96.17;;;81.50;;
9322;SDS011;4700;48.822;9.270;2023-04-01T19:13:33;92.87;;;78.53;;
9322;SDS011;4700;48.822;9.270;2023-04-01T19:16:30;85.60;;;72.33;;
9322;SDS011;4700;48.822;9.270;2023-04-01T19:22:36;90.97;;;78.60;;
9322;SDS011;4700;48.822;9.270;2023-04-01T19:25:35;85.73;;;73.10;;
9322;SDS011;4700;48.822;9.270;2023-04-01T19:28:26;90.43;;;76.30;;
9322;SDS011;4700;48.822;9.270;2023-04-01T19:31:29;91.93;;;75.43;;
9322;SDS011;4700;48.822;9.270;2023-04-01T19:34:25;81.03;;;69.97;;